Time;durP1;ratioP1;P1;durP2;ratioP2;P2;SDS_P1;SDS_P2;PMS_P1;PMS_P2;Temp;Humidity;BMP_temperature;BMP_pressure;BME280_temperature;BME280_humidity;BME280_pressure;Samples;Min_cycle;Max_cycle;Signal;HPM_P1;HPM_P2
2023/01/09 00:00:57;;;;;;;19.17;11.00;;;;;;;3.89;100.00;94721.06;5052752;28;20214;-55
2023/01/09 00:03:23;;;;;;;16.70;11.40;;;;;;;4.21;100.00;94762.78;5053348;28;20197;-59
2023/01/09 00:05:48;;;;;;;21.37;10.73;;;;;;;4.28;100.00;94795.94;5053272;28;20261;-57
2023/01/09 00:08:14;;;;;;;18.80;11.37;;;;;;;4.20;100.00;94773.75;5053081;28;20196;-56
2023/01/09 00:10:39;;;;;;;21.90;11.90;;;;;;;4.32;100.00;94783.09;5053126;28;20224;-54
2023/01/09 00:13:05;;;;;;;21.10;11.97;;;;;;;4.05;100.00;94782.97;5052761;28;20220;-56
2023/01/09 00:15:30;;;;;;;20.97;11.47;;;;;;;4.15;100.00;94763.94;5035127;28;20217;-55
2023/01/09 00:17:55;;;;;;;20.93;12.37;;;;;;;4.26;100.00;94773.38;5052805;28;20196;-57
2023/01/09 00:20:21;;;;;;;19.20;11.67;;;;;;;4.35;100.00;94798.00;5052812;28;20211;-54
2023/01/09 00:22:47;;;;;;;26.97;12.43;;;;;;;4.38;100.00;94805.38;5052839;28;20645;-55
2023/01/09 00:25:12;;;;;;;19.30;10.37;;;;;;;4.32;100.00;94762.97;5053807;28;20586;-58
2023/01/09 00:27:37;;;;;;;19.23;10.97;;;;;;;4.31;100.00;94801.59;5052595;28;20586;-58
2023/01/09 00:30:03;;;;;;;22.00;11.87;;;;;;;4.19;100.00;94770.41;5053210;28;20303;-57
2023/01/09 00:32:29;;;;;;;19.93;11.70;;;;;;;4.28;100.00;94768.25;5052387;28;20713;-55
2023/01/09 00:34:55;;;;;;;20.80;11.23;;;;;;;4.37;100.00;94792.88;5052468;28;20220;-53
2023/01/09 00:37:20;;;;;;;20.70;12.40;;;;;;;4.33;100.00;94776.34;5052448;28;20185;-57
2023/01/09 00:39:46;;;;;;;28.60;16.07;;;;;;;3.74;100.00;94737.84;5052166;28;20220;-52
2023/01/09 00:42:16;;;;;;;27.93;16.27;;;;;;;3.84;100.00;94712.97;5052683;28;20224;-57
2023/01/09 00:44:48;;;;;;;30.10;18.40;;;;;;;3.45;100.00;94682.59;5051805;28;20215;-53
2023/01/09 00:47:28;;;;;;;25.83;15.47;;;;;;;3.58;100.00;94706.94;5034502;28;20193;-57
2023/01/09 00:49:57;;;;;;;27.60;17.37;;;;;;;3.86;100.00;94727.09;5052512;28;20681;-53
2023/01/09 00:52:22;;;;;;;29.27;17.47;;;;;;;3.97;100.00;94765.00;5052195;28;20243;-53
2023/01/09 00:54:49;;;;;;;36.33;19.93;;;;;;;3.65;100.00;94717.47;5052365;28;20220;-53
2023/01/09 00:57:14;;;;;;;30.27;17.30;;;;;;;3.66;100.00;94691.41;5052245;28;20202;-55
2023/01/09 00:59:41;;;;;;;32.07;18.70;;;;;;;3.79;100.00;94750.16;5052169;28;20243;-53
2023/01/09 01:02:06;;;;;;;38.37;17.50;;;;;;;3.84;100.00;94758.22;5052100;28;20223;-54
2023/01/09 01:10:00;;;;;;;34.37;17.93;;;;;;;3.88;100.00;94734.56;5052631;28;20271;-53
2023/01/09 01:12:26;;;;;;;34.63;18.47;;;;;;;4.06;100.00;94812.25;5051739;28;20212;-57
2023/01/09 01:14:51;;;;;;;36.07;18.93;;;;;;;3.97;100.00;94772.56;5052072;28;20288;-55
2023/01/09 01:17:18;;;;;;;33.37;19.10;;;;;;;3.86;100.00;94746.38;5051841;28;20195;-55
2023/01/09 01:19:43;;;;;;;34.43;18.57;;;;;;;3.98;100.00;94780.91;5051920;28;20216;-56
2023/01/09 01:22:09;;;;;;;33.10;19.13;;;;;;;3.90;100.00;94762.94;5051875;28;20579;-55
2023/01/09 01:24:34;;;;;;;35.37;21.33;;;;;;;3.90;100.00;94752.88;5051691;28;20211;-55
2023/01/09 01:27:00;;;;;;;36.53;19.17;;;;;;;3.75;100.00;94728.59;5051685;28;20235;-56
2023/01/09 01:29:26;;;;;;;37.07;20.97;;;;;;;3.78;100.00;94741.78;5033694;28;20213;-56
2023/01/09 01:31:51;;;;;;;37.60;21.40;;;;;;;3.75;100.00;94743.69;5051418;28;20226;-56
2023/01/09 01:34:17;;;;;;;39.63;20.33;;;;;;;3.77;100.00;94742.72;5051726;28;20621;-54
2023/01/09 01:36:42;;;;;;;37.10;19.73;;;;;;;3.72;100.00;94728.75;5051650;28;20185;-53
2023/01/09 01:39:08;;;;;;;36.23;21.30;;;;;;;3.55;100.00;94688.72;5051391;28;20699;-57
2023/01/09 01:41:33;;;;;;;37.17;20.27;;;;;;;3.71;100.00;94717.94;5033652;28;20189;-54
2023/01/09 01:44:02;;;;;;;35.77;19.97;;;;;;;3.77;100.00;94721.78;5051317;28;20208;-58
2023/01/09 01:46:29;;;;;;;39.60;19.43;;;;;;;3.80;100.00;94729.94;5051488;28;20725;-53
2023/01/09 01:49:09;;;;;;;33.07;20.33;;;;;;;3.72;100.00;94723.72;5051326;28;20179;-58
2023/01/09 01:51:48;;;;;;;33.07;19.47;;;;;;;3.64;100.00;94705.78;5051330;28;20673;-53
2023/01/09 01:54:20;;;;;;;35.50;20.00;;;;;;;3.66;100.00;94687.19;5051479;28;20246;-57
2023/01/09 01:56:50;;;;;;;35.97;19.77;;;;;;;3.88;100.00;94720.25;5050304;28;20218;-57
2023/01/09 01:59:15;;;;;;;34.10;19.17;;;;;;;3.76;100.00;94693.31;5033419;28;20261;-55
2023/01/09 02:01:44;;;;;;;36.57;20.63;;;;;;;3.68;100.00;94682.91;5051220;28;20218;-54
2023/01/09 02:04:10;;;;;;;37.93;20.10;;;;;;;3.65;100.00;94670.53;5051170;28;20201;-58
2023/01/09 02:06:36;;;;;;;36.00;19.77;;;;;;;3.83;100.00;94707.16;5051044;28;20228;-55
2023/01/09 02:09:04;;;;;;;33.73;20.13;;;;;;;3.80;100.00;94688.91;5033285;28;20186;-54
2023/01/09 02:11:29;;;;;;;36.60;21.67;;;;;;;3.81;100.00;94700.59;5051255;28;20677;-52
2023/01/09 02:13:55;;;;;;;37.23;21.13;;;;;;;3.74;100.00;94682.53;5050611;28;20215;-52
2023/01/09 02:16:26;;;;;;;45.20;22.43;;;;;;;3.71;100.00;94692.78;5051163;28;20176;-53
2023/01/09 02:18:52;;;;;;;37.47;21.27;;;;;;;3.69;100.00;94682.00;5032922;28;20263;-53
2023/01/09 02:21:53;;;;;;;37.27;21.87;;;;;;;3.66;100.00;94659.56;5051007;28;20271;-55
2023/01/09 02:24:33;;;;;;;37.30;21.37;;;;;;;3.66;100.00;94662.06;5029706;28;20227;-55
2023/01/09 02:27:29;;;;;;;39.97;21.60;;;;;;;3.69;100.00;94666.13;5050958;28;20203;-56
2023/01/09 02:30:00;;;;;;;37.47;20.00;;;;;;;3.77;100.00;94643.84;5051040;28;20707;-53
2023/01/09 02:32:57;;;;;;;35.33;20.43;;;;;;;3.74;100.00;94633.97;5050634;28;20217;-54
2023/01/09 02:35:25;;;;;;;37.33;19.80;;;;;;;2.64;100.00;94570.84;5050748;28;20310;-53
2023/01/09 02:37:55;;;;;;;36.20;19.53;;;;;;;2.81;100.00;94597.53;5050769;28;20293;-59
2023/01/09 02:40:31;;;;;;;37.63;20.30;;;;;;;3.01;100.00;94592.19;5051278;28;20227;-54
2023/01/09 02:42:59;;;;;;;37.13;20.27;;;;;;;3.02;100.00;94607.16;5051191;28;20546;-58
2023/01/09 02:45:25;;;;;;;34.97;19.90;;;;;;;3.16;100.00;94619.75;5033290;28;20223;-53
2023/01/09 02:47:50;;;;;;;33.97;19.67;;;;;;;3.34;100.00;94658.91;5050642;28;20186;-53
2023/01/09 02:50:21;;;;;;;31.27;19.53;;;;;;;3.49;100.00;94671.47;5058067;22;20226;-57
2023/01/09 02:52:52;;;;;;;33.77;19.30;;;;;;;3.42;100.00;94661.78;5050738;28;20219;-56
2023/01/09 02:55:39;;;;;;;35.47;18.50;;;;;;;3.42;100.00;94661.78;5049873;28;20576;-54
2023/01/09 02:58:55;;;;;;;32.73;18.07;;;;;;;3.48;100.00;94643.03;5032836;28;20720;-57
2023/01/09 03:01:36;;;;;;;37.37;20.40;;;;;;;3.26;100.00;94651.00;5016234;28;20213;-54
2023/01/09 03:04:14;;;;;;;36.00;18.93;;;;;;;3.18;100.00;94647.28;5049039;28;20203;-55
2023/01/09 03:07:07;;;;;;;34.30;18.57;;;;;;;3.40;100.00;94675.31;5050637;28;20203;-54
2023/01/09 03:09:36;;;;;;;34.60;18.03;;;;;;;3.27;100.00;94611.63;5036197;28;20213;-57
2023/01/09 03:12:17;;;;;;;34.80;20.07;;;;;;;3.32;100.00;94643.09;5053741;28;20191;-55
2023/01/09 03:14:48;;;;;;;30.53;18.00;;;;;;;3.36;100.00;94668.84;5053955;28;20299;-55
2023/01/09 03:17:20;;;;;;;35.13;19.17;;;;;;;3.28;100.00;94656.72;5053886;28;20637;-52
2023/01/09 03:19:49;;;;;;;32.83;18.33;;;;;;;3.43;100.00;94673.44;5053944;28;20214;-57
2023/01/09 03:22:14;;;;;;;33.77;17.63;;;;;;;3.32;100.00;94647.31;5053762;28;20193;-54
2023/01/09 03:24:39;;;;;;;28.57;17.53;;;;;;;3.41;100.00;94657.63;5053818;28;20635;-55
2023/01/09 03:27:08;;;;;;;29.47;17.17;;;;;;;3.41;100.00;94655.13;5053812;28;20216;-53
2023/01/09 03:29:33;;;;;;;29.67;20.10;;;;;;;3.34;100.00;94633.78;5053813;28;20216;-52
2023/01/09 03:31:59;;;;;;;34.63;19.20;;;;;;;3.38;100.00;94652.81;5053537;28;20195;-53
2023/01/09 03:34:24;;;;;;;29.53;18.67;;;;;;;3.48;100.00;94679.91;5053551;28;20227;-53
2023/01/09 03:36:50;;;;;;;31.07;19.13;;;;;;;3.48;100.00;94678.19;5053512;28;20188;-58
2023/01/09 03:39:15;;;;;;;30.37;17.40;;;;;;;3.42;100.00;94634.16;5053301;28;20665;-54
2023/01/09 03:41:41;;;;;;;31.73;16.97;;;;;;;3.44;100.00;94654.16;5053619;28;20188;-54
2023/01/09 03:44:06;;;;;;;29.10;16.73;;;;;;;3.48;100.00;94679.91;5053249;28;20195;-52
2023/01/09 03:46:31;;;;;;;30.97;18.17;;;;;;;3.41;100.00;94684.47;5053468;28;20191;-57
2023/01/09 03:48:57;;;;;;;30.67;17.37;;;;;;;3.41;100.00;94679.47;5053292;28;20643;-54
2023/01/09 03:51:22;;;;;;;33.03;17.73;;;;;;;3.38;100.00;94685.47;5053283;28;20218;-54
2023/01/09 03:53:48;;;;;;;28.37;16.77;;;;;;;3.44;100.00;94686.81;5053183;28;20301;-52
2023/01/09 03:56:13;;;;;;;28.80;16.93;;;;;;;3.37;100.00;94688.06;5053203;28;20209;-56
2023/01/09 03:58:39;;;;;;;29.23;16.87;;;;;;;3.50;100.00;94721.63;5053213;28;20583;-56
2023/01/09 04:01:08;;;;;;;28.60;17.03;;;;;;;3.38;100.00;94682.94;5052932;28;20218;-57
2023/01/09 04:03:33;;;;;;;30.17;16.70;;;;;;;3.36;100.00;94693.97;5053102;28;20583;-57
2023/01/09 04:05:59;;;;;;;29.53;17.00;;;;;;;3.26;100.00;94691.16;5052756;28;20228;-55
2023/01/09 04:08:31;;;;;;;38.27;18.00;;;;;;;3.25;100.00;94671.16;5053020;28;20186;-57
2023/01/09 04:10:56;;;;;;;34.13;17.53;;;;;;;3.32;100.00;94668.22;5053411;28;20225;-54
2023/01/09 04:13:22;;;;;;;33.57;17.43;;;;;;;3.35;100.00;94673.06;5052966;28;20260;-56
2023/01/09 04:15:48;;;;;;;31.83;18.47;;;;;;;3.48;100.00;94692.47;5053197;28;20245;-57
2023/01/09 04:18:14;;;;;;;33.37;17.90;;;;;;;3.34;100.00;94684.00;5052934;28;20664;-56
2023/01/09 04:20:39;;;;;;;31.30;17.37;;;;;;;3.36;100.00;94679.72;5052150;28;20300;-57
2023/01/09 04:23:05;;;;;;;29.00;16.63;;;;;;;3.27;100.00;94659.34;5052623;28;20557;-54
2023/01/09 04:25:31;;;;;;;28.40;17.57;;;;;;;3.33;100.00;94662.28;5035016;28;20248;-57
2023/01/09 04:27:56;;;;;;;27.20;16.73;;;;;;;3.22;100.00;94629.44;5052933;28;20697;-54
2023/01/09 04:30:22;;;;;;;33.13;17.13;;;;;;;3.27;100.00;94657.59;5053064;28;20216;-56
2023/01/09 04:32:47;;;;;;;32.73;16.70;;;;;;;3.30;100.00;94637.34;5052793;28;20298;-59
2023/01/09 04:35:13;;;;;;;27.67;16.53;;;;;;;2.36;100.00;94575.78;5052902;28;20217;-53
2023/01/09 04:37:38;;;;;;;28.60;17.17;;;;;;;2.65;100.00;94617.63;5052447;28;20196;-53
2023/01/09 04:40:10;;;;;;;28.53;17.10;;;;;;;2.79;100.00;94602.63;5052476;28;20770;-53
2023/01/09 04:42:37;;;;;;;25.13;15.70;;;;;;;2.95;100.00;94628.47;5052726;28;20555;-57
2023/01/09 04:45:04;;;;;;;29.23;15.43;;;;;;;3.06;100.00;94653.00;5034545;28;20232;-57
2023/01/09 04:47:36;;;;;;;27.53;15.30;;;;;;;3.06;100.00;94647.97;5052453;28;20280;-57
2023/01/09 04:50:02;;;;;;;25.50;16.10;;;;;;;3.04;100.00;94629.66;5052110;28;20741;-53
2023/01/09 04:52:28;;;;;;;27.00;16.10;;;;;;;3.18;100.00;94659.84;5052140;28;20301;-54
2023/01/09 04:54:54;;;;;;;26.43;16.40;;;;;;;3.07;100.00;94637.06;5052573;28;20296;-54
2023/01/09 04:57:19;;;;;;;28.50;17.07;;;;;;;3.10;100.00;94667.81;5052135;28;20351;-53
2023/01/09 04:59:45;;;;;;;43.10;17.97;;;;;;;2.96;100.00;94630.09;5052182;28;20213;-55
2023/01/09 05:02:10;;;;;;;30.63;18.43;;;;;;;2.96;100.00;94622.56;5052197;28;20194;-56
2023/01/09 05:04:36;;;;;;;33.77;19.50;;;;;;;2.96;100.00;94625.09;5052248;28;20679;-56
2023/01/09 05:07:01;;;;;;;35.00;18.27;;;;;;;3.06;100.00;94552.56;5051722;28;20217;-53
2023/01/09 05:09:27;;;;;;;27.97;16.93;;;;;;;2.95;100.00;94615.94;5051461;28;20707;-56
2023/01/09 05:11:52;;;;;;;32.60;17.97;;;;;;;2.85;100.00;94604.78;5050878;28;20192;-55
2023/01/09 05:14:18;;;;;;;30.90;16.17;;;;;;;2.78;100.00;94560.03;5051985;28;20242;-52
2023/01/09 05:16:43;;;;;;;25.57;16.83;;;;;;;2.91;100.00;94599.41;5051803;28;20188;-53
2023/01/09 05:19:08;;;;;;;28.80;16.17;;;;;;;2.73;100.00;94574.56;5050952;28;20566;-56
2023/01/09 05:21:34;;;;;;;31.07;16.17;;;;;;;2.65;100.00;94584.22;5050952;28;20181;-53
2023/01/09 05:23:59;;;;;;;24.53;15.63;;;;;;;2.58;100.00;94570.38;5050172;28;20268;-53
2023/01/09 05:26:25;;;;;;;29.57;16.07;;;;;;;2.77;100.00;94616.16;5052121;28;20185;-56
2023/01/09 05:28:51;;;;;;;25.17;14.63;;;;;;;2.58;100.00;94631.41;5051508;28;20239;-53
2023/01/09 05:31:18;;;;;;;24.43;16.03;;;;;;;2.59;100.00;94612.94;5051259;28;20245;-55
2023/01/09 05:33:43;;;;;;;25.57;15.37;;;;;;;2.60;100.00;94609.56;5033649;28;20213;-54
2023/01/09 05:36:09;;;;;;;27.13;15.10;;;;;;;2.71;100.00;94639.88;5050955;28;20239;-54
2023/01/09 05:38:34;;;;;;;27.57;14.93;;;;;;;2.66;100.00;94623.44;5050697;28;20189;-52
2023/01/09 05:41:02;;;;;;;28.53;15.70;;;;;;;2.68;100.00;94632.53;5050760;28;20595;-58
2023/01/09 05:43:27;;;;;;;33.93;16.93;;;;;;;2.63;100.00;94593.53;5032725;28;20191;-57
2023/01/09 05:45:53;;;;;;;24.60;15.13;;;;;;;2.78;100.00;94631.13;5032929;28;20219;-57
2023/01/09 05:48:18;;;;;;;27.33;16.20;;;;;;;3.01;100.00;94628.13;5051583;28;20182;-54
2023/01/09 05:50:43;;;;;;;31.47;16.10;;;;;;;2.98;100.00;94625.81;5051313;28;20363;-56
2023/01/09 05:53:09;;;;;;;28.50;16.47;;;;;;;2.94;100.00;94643.63;5051179;28;20207;-56
2023/01/09 05:55:34;;;;;;;22.83;13.77;;;;;;;2.90;100.00;94627.94;5051286;28;20209;-54
2023/01/09 05:58:00;;;;;;;30.37;17.13;;;;;;;3.13;100.00;94640.00;5051307;28;20297;-56
2023/01/09 06:00:25;;;;;;;26.30;14.77;;;;;;;3.24;100.00;94682.91;5051557;28;20206;-58
2023/01/09 06:02:51;;;;;;;41.37;22.30;;;;;;;4.79;100.00;94588.88;5051273;28;20570;-55
2023/01/09 06:05:16;;;;;;;34.03;18.77;;;;;;;4.13;100.00;94622.38;5051499;28;20230;-58
2023/01/09 06:07:42;;;;;;;26.77;15.17;;;;;;;3.85;100.00;94750.63;5051077;28;20239;-58
2023/01/09 06:10:10;;;;;;;27.80;16.87;;;;;;;3.63;100.00;94735.16;5051151;28;20288;-58
2023/01/09 06:12:36;;;;;;;31.90;17.77;;;;;;;3.38;100.00;94674.59;5051115;28;20246;-53
2023/01/09 06:15:01;;;;;;;30.30;17.53;;;;;;;3.36;100.00;94684.72;5050884;28;20268;-57
2023/01/09 06:17:26;;;;;;;35.60;18.23;;;;;;;3.36;100.00;94701.50;5051154;28;20197;-54
2023/01/09 06:19:52;;;;;;;30.40;17.27;;;;;;;3.12;100.00;94668.53;5050769;28;20721;-53
2023/01/09 06:22:17;;;;;;;26.57;17.10;;;;;;;3.11;100.00;94664.38;5050947;28;20195;-53
2023/01/09 06:24:43;;;;;;;27.93;16.93;;;;;;;3.15;100.00;94667.56;5050978;28;20219;-55
2023/01/09 06:27:08;;;;;;;29.93;17.47;;;;;;;3.13;100.00;94666.84;5032933;28;20621;-55
2023/01/09 06:29:33;;;;;;;29.33;17.63;;;;;;;3.20;100.00;94673.13;5050855;28;20205;-55
2023/01/09 06:31:59;;;;;;;33.73;17.73;;;;;;;3.28;100.00;94694.41;5050647;28;20185;-54
2023/01/09 06:34:24;;;;;;;32.10;17.63;;;;;;;3.28;100.00;94684.34;5050654;28;20578;-54
2023/01/09 06:36:50;;;;;;;27.67;16.80;;;;;;;3.36;100.00;94686.44;5050552;28;20185;-53
2023/01/09 06:39:15;;;;;;;32.63;16.20;;;;;;;3.34;100.00;94683.19;5050613;28;20226;-54
2023/01/09 06:41:40;;;;;;;30.27;17.77;;;;;;;3.40;100.00;94682.84;5050990;28;20260;-54
2023/01/09 06:44:06;;;;;;;33.57;17.10;;;;;;;3.27;100.00;94655.09;5053997;28;20193;-58
2023/01/09 06:46:31;;;;;;;27.77;15.10;;;;;;;3.48;100.00;94687.44;5036726;28;20218;-56
2023/01/09 06:48:57;;;;;;;28.73;15.10;;;;;;;3.47;100.00;94679.13;5054073;28;20193;-53
2023/01/09 06:51:22;;;;;;;26.23;16.70;;;;;;;3.50;100.00;94668.06;5054366;28;20190;-57
2023/01/09 06:53:48;;;;;;;30.30;17.83;;;;;;;3.55;100.00;94682.00;5054173;28;20261;-54
2023/01/09 06:56:13;;;;;;;32.50;16.63;;;;;;;3.69;100.00;94687.03;5054232;28;20222;-57
2023/01/09 06:58:38;;;;;;;32.03;17.47;;;;;;;3.70;100.00;94681.09;5054198;28;20289;-53
2023/01/09 07:01:04;;;;;;;33.43;16.93;;;;;;;3.71;100.00;94674.38;5054169;28;20216;-56
2023/01/09 07:03:29;;;;;;;33.30;19.30;;;;;;;3.70;100.00;94672.75;5054020;28;20271;-53
2023/01/09 07:05:55;;;;;;;37.80;20.53;;;;;;;3.75;100.00;94679.16;5053971;28;20235;-54
2023/01/09 07:08:20;;;;;;;35.47;20.57;;;;;;;3.81;100.00;94668.72;5053934;28;20195;-55
2023/01/09 07:10:46;;;;;;;29.37;18.70;;;;;;;3.83;100.00;94608.31;5054218;28;20302;-54
2023/01/09 07:13:11;;;;;;;33.90;20.40;;;;;;;3.43;100.00;94638.25;5054101;28;20221;-58
2023/01/09 07:15:37;;;;;;;37.87;19.93;;;;;;;3.17;100.00;94618.84;5053728;28;20216;-55
2023/01/09 07:18:02;;;;;;;36.70;17.70;;;;;;;3.08;100.00;94606.00;5053785;28;20187;-59
2023/01/09 07:20:28;;;;;;;31.00;17.73;;;;;;;3.27;100.00;94604.88;5053883;28;20211;-54
2023/01/09 07:22:53;;;;;;;23.30;14.73;;;;;;;3.52;100.00;94636.94;5053836;28;20280;-58
2023/01/09 07:25:19;;;;;;;24.73;14.57;;;;;;;3.70;100.00;94658.47;5053690;28;20245;-56
2023/01/09 07:27:45;;;;;;;23.50;13.67;;;;;;;3.69;100.00;94669.44;5054008;28;20212;-53
2023/01/09 07:30:11;;;;;;;28.23;15.30;;;;;;;4.04;100.00;94725.22;5053904;28;20709;-56
2023/01/09 07:32:39;;;;;;;30.17;16.27;;;;;;;4.26;100.00;94718.81;5053492;28;20235;-58
2023/01/09 07:35:05;;;;;;;25.40;14.70;;;;;;;4.53;100.00;94723.94;5053860;28;20300;-58
2023/01/09 07:37:30;;;;;;;23.80;13.73;;;;;;;4.66;100.00;94744.97;5053424;28;20241;-53
2023/01/09 07:39:56;;;;;;;24.70;13.47;;;;;;;4.96;100.00;94760.72;5053640;28;20220;-54
2023/01/09 07:42:21;;;;;;;20.47;12.30;;;;;;;5.08;100.00;94764.19;5053348;28;20212;-55
2023/01/09 07:44:47;;;;;;;28.40;15.20;;;;;;;5.38;100.00;94786.66;5053566;28;20214;-54
2023/01/09 07:47:12;;;;;;;23.73;14.30;;;;;;;5.54;100.00;94783.09;5053469;28;20228;-53
2023/01/09 07:49:37;;;;;;;26.70;15.40;;;;;;;5.79;100.00;94815.13;5053332;28;20259;-57
2023/01/09 07:52:03;;;;;;;24.83;15.70;;;;;;;5.68;100.00;94812.47;5053330;28;20220;-54
2023/01/09 07:54:29;;;;;;;33.07;16.47;;;;;;;5.77;100.00;94804.34;5052065;28;20311;-58
2023/01/09 07:56:55;;;;;;;30.10;16.80;;;;;;;6.16;100.00;94827.03;5053267;28;20220;-53
2023/01/09 07:59:20;;;;;;;27.47;16.20;;;;;;;6.41;100.00;94844.72;5053184;28;20217;-53
2023/01/09 08:01:46;;;;;;;27.33;16.37;;;;;;;6.30;100.00;94862.28;5035471;28;20185;-55
2023/01/09 08:04:11;;;;;;;26.27;15.50;;;;;;;6.26;100.00;94815.41;5035306;28;20678;-56
2023/01/09 08:06:37;;;;;;;33.40;17.20;;;;;;;6.70;100.00;94842.81;5053141;28;20182;-55
2023/01/09 08:09:02;;;;;;;32.67;15.80;;;;;;;6.91;100.00;94863.31;5052995;28;20181;-56
2023/01/09 08:11:28;;;;;;;33.93;18.50;;;;;;;7.22;100.00;94868.72;5052946;28;20181;-57
2023/01/09 08:13:53;;;;;;;35.40;18.63;;;;;;;7.39;100.00;94890.31;5052718;28;20708;-55
2023/01/09 08:16:19;;;;;;;37.60;19.43;;;;;;;7.61;100.00;94900.56;5053006;28;20220;-57
2023/01/09 08:18:44;;;;;;;30.60;19.13;;;;;;;8.11;100.00;94962.84;5053113;28;20189;-58
2023/01/09 08:21:13;;;;;;;41.43;19.93;;;;;;;8.38;100.00;94966.78;5052902;28;20702;-58
2023/01/09 08:23:38;;;;;;;33.67;21.03;;;;;;;8.52;100.00;94917.69;5052718;28;20268;-56
2023/01/09 08:26:04;;;;;;;34.90;20.00;;;;;;;8.69;100.00;94929.13;5052812;28;20634;-57
2023/01/09 08:28:48;;;;;;;35.47;20.83;;;;;;;8.93;100.00;94965.34;5052691;28;20185;-56
2023/01/09 08:31:14;;;;;;;34.53;19.50;;;;;;;8.99;100.00;94942.06;5034592;28;20251;-57
2023/01/09 08:33:39;;;;;;;40.13;22.47;;;;;;;9.01;100.00;94975.72;5052367;28;20600;-55
2023/01/09 08:36:05;;;;;;;38.10;22.17;;;;;;;9.12;100.00;94950.41;5052438;28;20684;-57
2023/01/09 08:38:30;;;;;;;41.33;22.17;;;;;;;9.35;100.00;94974.06;5052442;28;20181;-57
2023/01/09 08:40:56;;;;;;;40.53;22.93;;;;;;;9.63;100.00;94988.84;5034523;28;20679;-57
2023/01/09 08:48:55;;;;;;;45.90;22.47;;;;;;;9.68;99.48;94976.59;5052259;28;20296;-57
2023/01/09 08:51:21;;;;;;;42.40;24.07;;;;;;;9.96;98.92;94981.97;5052480;28;20656;-57
2023/01/09 08:53:46;;;;;;;38.50;22.40;;;;;;;10.08;98.99;94973.41;5052057;28;20308;-57
2023/01/09 08:56:12;;;;;;;39.40;22.37;;;;;;;10.19;99.37;94961.63;5051997;28;20709;-58
2023/01/09 08:58:38;;;;;;;39.13;21.90;;;;;;;9.93;99.15;94948.41;5051884;28;20186;-56
2023/01/09 09:01:07;;;;;;;38.63;21.50;;;;;;;10.35;97.49;94988.28;5051646;28;20221;-57
2023/01/09 09:03:33;;;;;;;35.63;22.00;;;;;;;10.56;96.76;94983.25;5034038;28;20197;-57
2023/01/09 09:05:58;;;;;;;32.30;20.57;;;;;;;10.88;96.83;94973.84;5051852;28;20288;-57
2023/01/09 09:08:23;;;;;;;35.83;18.67;;;;;;;10.81;94.16;95024.38;5052009;28;20674;-56
2023/01/09 09:10:49;;;;;;;29.47;18.50;;;;;;;11.09;85.00;95057.81;5033982;28;20217;-56
2023/01/09 09:13:14;;;;;;;30.70;19.27;;;;;;;10.69;83.91;94983.88;5051755;28;20267;-57
2023/01/09 09:15:40;;;;;;;35.47;22.43;;;;;;;11.02;82.13;95009.16;5034060;28;20263;-56
2023/01/09 09:18:06;;;;;;;37.50;22.97;;;;;;;11.13;83.58;94967.56;5052000;28;20577;-57
2023/01/09 09:20:36;;;;;;;37.50;22.83;;;;;;;11.46;80.97;95013.16;5051737;28;20240;-55
2023/01/09 09:23:02;;;;;;;41.77;23.63;;;;;;;11.41;79.56;95025.47;5051751;28;20266;-57
2023/01/09 09:25:28;;;;;;;39.23;23.73;;;;;;;11.28;74.97;95018.00;5051810;28;20762;-55
2023/01/09 09:27:56;;;;;;;29.93;20.17;;;;;;;11.05;76.68;94970.72;5051846;28;20268;-59
2023/01/09 09:30:23;;;;;;;38.00;22.47;;;;;;;10.99;76.41;94945.78;5051836;28;20205;-57
2023/01/09 09:32:48;;;;;;;36.30;21.10;;;;;;;10.89;72.77;94962.72;5051749;28;20213;-58
2023/01/09 09:35:16;;;;;;;39.33;21.47;;;;;;;11.01;74.38;94922.78;5051458;28;20671;-57
2023/01/09 09:37:42;;;;;;;39.93;22.37;;;;;;;11.41;72.35;94946.56;5051521;28;20189;-57
2023/01/09 09:40:26;;;;;;;38.20;23.00;;;;;;;11.65;71.19;94955.50;5051548;28;20205;-57
2023/01/09 09:46:13;;;;;;;34.73;21.17;;;;;;;12.13;68.51;95014.25;5051736;28;20288;-58
2023/01/09 09:48:51;;;;;;;30.37;19.00;;;;;;;11.95;68.57;94976.78;5051366;28;20647;-55
2023/01/09 09:51:22;;;;;;;32.40;19.87;;;;;;;11.96;70.00;94930.00;5051188;28;20282;-54
2023/01/09 09:53:58;;;;;;;28.67;18.03;;;;;;;12.13;68.63;94970.13;5051111;28;20213;-53
2023/01/09 09:56:26;;;;;;;29.67;15.90;;;;;;;12.44;70.29;94913.00;5051325;28;20217;-54
2023/01/09 09:59:11;;;;;;;32.73;16.83;;;;;;;12.58;67.81;94964.38;5051162;28;20289;-54
2023/01/09 10:01:41;;;;;;;34.97;18.73;;;;;;;12.38;68.15;94944.13;5051176;28;20209;-58
2023/01/09 10:04:13;;;;;;;31.07;19.17;;;;;;;12.60;68.52;94923.47;5050958;28;20702;-58
2023/01/09 10:06:44;;;;;;;31.60;19.93;;;;;;;12.23;69.53;94880.00;5051222;28;20187;-59
2023/01/09 10:09:15;;;;;;;31.20;19.67;;;;;;;12.82;67.88;94912.97;5051264;28;20196;-57
2023/01/09 10:11:56;;;;;;;34.63;19.77;;;;;;;13.13;66.77;94932.25;5033280;28;20779;-58
2023/01/09 10:14:22;;;;;;;27.37;16.67;;;;;;;12.84;65.73;94926.41;5050951;28;20311;-54
2023/01/09 10:16:59;;;;;;;21.67;13.73;;;;;;;12.85;65.93;94933.09;5049561;28;20686;-56
2023/01/09 10:19:30;;;;;;;22.53;13.43;;;;;;;12.50;66.21;94913.25;5051355;28;20259;-56
2023/01/09 10:22:03;;;;;;;18.93;12.37;;;;;;;12.61;65.72;94914.88;5050853;28;20642;-54
2023/01/09 10:24:47;;;;;;;22.87;12.20;;;;;;;12.27;65.67;94895.81;5050943;28;20217;-58
2023/01/09 10:27:36;;;;;;;21.07;12.87;;;;;;;12.19;65.88;94888.03;5050637;28;20193;-53
2023/01/09 10:30:26;;;;;;;16.83;10.83;;;;;;;13.18;78.23;94634.00;5050457;28;20213;-53
2023/01/09 10:33:24;;;;;;;17.13;11.70;;;;;;;13.64;75.12;94703.63;5050747;28;20213;-53
2023/01/09 10:36:06;;;;;;;17.43;11.57;;;;;;;14.01;75.52;94699.97;5031222;28;20286;-55
2023/01/09 10:38:37;;;;;;;18.65;10.93;;;;;;;14.85;74.27;94726.50;5050581;28;20204;-54
2023/01/09 10:41:09;;;;;;;19.73;12.23;;;;;;;15.09;68.17;94857.19;5050692;28;20225;-54
2023/01/09 10:43:37;;;;;;;19.38;12.10;;;;;;;15.62;62.80;94976.63;5050608;28;20182;-54
2023/01/09 10:46:10;;;;;;;20.95;11.20;;;;;;;16.16;63.80;94936.94;5050496;28;20594;-54
2023/01/09 10:48:44;;;;;;;16.20;10.98;;;;;;;16.41;65.08;94795.69;5050652;28;20186;-54
2023/01/09 10:51:22;;;;;;;16.70;11.35;;;;;;;16.46;60.76;94811.38;5032703;28;20221;-55
2023/01/09 10:53:52;;;;;;;16.35;11.60;;;;;;;16.49;60.75;94813.69;5050463;28;20205;-59
2023/01/09 10:56:32;;;;;;;18.55;11.93;;;;;;;16.62;57.79;94870.44;5050518;28;20694;-56
2023/01/09 10:58:58;;;;;;;19.63;11.50;;;;;;;16.64;60.89;94765.06;5050321;28;20187;-56
2023/01/09 11:01:31;;;;;;;14.90;10.77;;;;;;;16.57;59.75;94788.00;5050402;28;20181;-54
2023/01/09 11:03:58;;;;;;;19.23;11.65;;;;;;;16.51;57.69;94801.50;5032201;28;20563;-56
2023/01/09 11:06:38;;;;;;;15.82;11.57;;;;;;;15.90;55.77;94837.81;5050359;28;20201;-53
2023/01/09 11:09:04;;;;;;;17.02;11.60;;;;;;;15.65;57.28;94776.41;5050059;28;20181;-54
2023/01/09 11:11:40;;;;;;;16.13;11.02;;;;;;;15.83;64.15;94625.81;5050281;28;20773;-58
2023/01/09 11:14:27;;;;;;;19.98;12.25;;;;;;;15.73;55.14;94809.75;5049983;28;20217;-57
2023/01/09 11:16:57;;;;;;;18.10;11.52;;;;;;;15.02;55.57;94779.38;5050379;28;20213;-54
2023/01/09 11:19:25;;;;;;;15.30;11.38;;;;;;;14.56;57.12;94735.50;5050230;28;20217;-58
2023/01/09 11:22:08;;;;;;;16.42;10.57;;;;;;;14.12;58.16;94706.56;5050376;28;20287;-53
2023/01/09 11:24:34;;;;;;;17.83;10.83;;;;;;;13.19;61.90;94639.91;5050009;28;20266;-57
2023/01/09 11:27:11;;;;;;;16.02;10.70;;;;;;;12.47;63.73;94596.56;5049897;28;20276;-57
2023/01/09 11:29:37;;;;;;;19.77;11.50;;;;;;;12.58;64.48;94573.41;5052764;28;20205;-58
2023/01/09 11:32:02;;;;;;;21.05;12.85;;;;;;;12.47;65.07;94571.06;5053705;28;20181;-57
2023/01/09 11:34:31;;;;;;;18.80;12.47;;;;;;;12.37;66.36;94549.91;5053431;28;20598;-54
2023/01/09 11:37:07;;;;;;;19.57;11.50;;;;;;;12.26;66.37;94545.81;5053296;28;20192;-54